createdAt,value
2023-05-23T00:02:08.363Z,100.00
2023-05-23T00:04:58.638Z,100.00
2023-05-23T00:07:46.906Z,100.00
2023-05-23T00:10:34.659Z,100.00
2023-05-23T00:13:22.760Z,100.00
2023-05-23T00:16:10.727Z,100.00
2023-05-23T00:18:59.436Z,100.00
2023-05-23T00:21:49.839Z,100.00
2023-05-23T00:24:37.638Z,100.00
2023-05-23T00:27:25.537Z,100.00
2023-05-23T00:30:13.658Z,100.00
2023-05-23T00:33:01.605Z,100.00
2023-05-23T00:35:49.639Z,100.00
2023-05-23T00:38:39.649Z,100.00
2023-05-23T00:41:30.634Z,100.00
2023-05-23T00:44:20.190Z,100.00
2023-05-23T00:47:09.303Z,100.00
2023-05-23T00:49:57.147Z,100.00
2023-05-23T00:52:46.673Z,100.00
2023-05-23T00:55:35.877Z,100.00
2023-05-23T00:58:24.156Z,100.00
2023-05-23T01:01:12.152Z,100.00
2023-05-23T01:04:00.106Z,100.00
2023-05-23T01:06:49.273Z,100.00
2023-05-23T01:12:52.224Z,100.00
2023-05-23T01:15:46.793Z,100.00
2023-05-23T01:18:41.511Z,100.00
2023-05-23T01:21:30.518Z,100.00
2023-05-23T01:24:36.682Z,100.00
2023-05-23T01:27:38.156Z,100.00
2023-05-23T01:30:26.992Z,100.00
2023-05-23T01:33:17.577Z,100.00
2023-05-23T01:36:05.807Z,100.00
2023-05-23T01:38:53.738Z,100.00
2023-05-23T01:41:41.682Z,100.00
2023-05-23T01:44:31.115Z,100.00
2023-05-23T01:47:19.667Z,99.98
2023-05-23T01:50:09.076Z,100.00
2023-05-23T01:52:57.804Z,100.00
2023-05-23T01:55:46.513Z,100.00
2023-05-23T01:58:34.527Z,100.00
2023-05-23T02:01:23.822Z,100.00
2023-05-23T02:04:11.855Z,100.00
2023-05-23T02:06:59.499Z,100.00
2023-05-23T02:09:47.266Z,100.00
2023-05-23T02:12:35.074Z,100.00
2023-05-23T02:15:22.845Z,100.00
2023-05-23T02:18:11.932Z,100.00
2023-05-23T02:20:59.666Z,100.00
2023-05-23T02:23:47.432Z,100.00
2023-05-23T02:26:35.034Z,100.00
2023-05-23T02:29:23.034Z,100.00
2023-05-23T02:32:10.785Z,100.00
2023-05-23T02:34:59.848Z,100.00
2023-05-23T02:37:47.808Z,100.00
2023-05-23T02:40:35.531Z,100.00
2023-05-23T02:43:23.246Z,100.00
2023-05-23T02:46:11.228Z,100.00
2023-05-23T02:48:58.896Z,100.00
2023-05-23T02:51:47.904Z,100.00
2023-05-23T02:54:35.679Z,100.00
2023-05-23T02:57:23.366Z,100.00
2023-05-23T03:00:12.189Z,100.00
2023-05-23T03:02:59.992Z,100.00
2023-05-23T03:05:48.417Z,100.00
2023-05-23T03:08:37.499Z,99.80
2023-05-23T03:11:25.440Z,100.00
2023-05-23T03:14:13.911Z,99.14
2023-05-23T03:17:04.028Z,99.66
2023-05-23T03:19:51.678Z,100.00
2023-05-23T03:22:39.332Z,100.00
2023-05-23T03:25:28.423Z,100.00
2023-05-23T03:28:16.232Z,100.00
2023-05-23T03:31:04.084Z,100.00
2023-05-23T03:33:52.115Z,99.66
2023-05-23T03:36:40.416Z,99.64
2023-05-23T03:39:28.170Z,99.77
2023-05-23T03:42:17.261Z,100.00
2023-05-23T03:45:05.673Z,100.00
2023-05-23T03:47:53.468Z,100.00
2023-05-23T03:50:41.206Z,100.00
2023-05-23T03:53:28.897Z,100.00
2023-05-23T03:56:16.641Z,100.00
2023-05-23T03:59:05.907Z,100.00
2023-05-23T04:01:53.578Z,100.00
2023-05-23T04:04:41.367Z,100.00
2023-05-23T04:07:29.228Z,100.00
2023-05-23T04:10:17.108Z,100.00
2023-05-23T04:13:04.814Z,98.92
2023-05-23T04:15:56.270Z,98.60
2023-05-23T04:18:47.149Z,97.97
2023-05-23T04:21:34.983Z,97.99
2023-05-23T04:24:22.722Z,97.84
2023-05-23T04:27:10.386Z,97.83
2023-05-23T04:29:58.325Z,97.26
2023-05-23T04:32:47.495Z,97.13
2023-05-23T04:35:39.010Z,97.99
2023-05-23T04:38:27.830Z,96.87
2023-05-23T04:41:16.412Z,97.60
2023-05-23T04:44:06.216Z,96.64
2023-05-23T04:46:54.099Z,97.04
2023-05-23T04:49:43.155Z,96.84
2023-05-23T04:52:33.425Z,97.06
2023-05-23T04:55:21.556Z,97.29
2023-05-23T04:58:09.924Z,96.82
2023-05-23T05:00:57.849Z,97.65
2023-05-23T05:03:45.539Z,97.62
2023-05-23T05:06:34.662Z,97.66
2023-05-23T05:09:23.175Z,97.71
2023-05-23T05:12:10.795Z,98.87
2023-05-23T05:14:58.598Z,97.73
2023-05-23T05:17:48.290Z,97.75
2023-05-23T05:27:03.356Z,97.72
2023-05-23T05:29:51.922Z,97.60
2023-05-23T05:32:39.834Z,98.31
2023-05-23T05:35:27.672Z,98.08
2023-05-23T05:38:15.403Z,97.73
2023-05-23T05:41:05.468Z,97.29
2023-05-23T05:43:54.023Z,97.36
2023-05-23T05:46:41.821Z,98.29
2023-05-23T05:49:29.582Z,98.50
2023-05-23T05:52:18.602Z,97.03
2023-05-23T05:55:07.290Z,95.84
2023-05-23T05:57:56.404Z,95.31
2023-05-23T06:00:44.161Z,95.23
2023-05-23T06:03:32.323Z,94.09
2023-05-23T06:06:20.270Z,93.29
2023-05-23T06:09:08.065Z,92.84
2023-05-23T06:11:55.915Z,92.40
2023-05-23T06:14:45.044Z,90.97
2023-05-23T06:17:32.981Z,90.53
2023-05-23T06:20:20.705Z,89.38
2023-05-23T06:23:08.903Z,90.03
2023-05-23T06:25:56.611Z,89.89
2023-05-23T06:28:44.294Z,89.38
2023-05-23T06:31:33.479Z,87.91
2023-05-23T06:34:21.410Z,87.81
2023-05-23T06:37:09.112Z,87.74
2023-05-23T06:39:56.880Z,87.17
2023-05-23T06:42:44.762Z,86.63
2023-05-23T06:45:35.160Z,85.43
2023-05-23T06:48:24.296Z,84.77
2023-05-23T06:51:12.101Z,83.33
2023-05-23T06:53:59.864Z,83.64
2023-05-23T06:56:47.580Z,84.45
2023-05-23T06:59:35.335Z,84.86
2023-05-23T07:02:23.157Z,85.59
2023-05-23T07:05:12.583Z,86.26
2023-05-23T07:08:00.328Z,87.35
2023-05-23T07:10:48.017Z,88.62
2023-05-23T07:13:35.818Z,87.53
2023-05-23T07:16:23.648Z,85.66
2023-05-23T07:19:11.415Z,86.49
2023-05-23T07:22:00.489Z,86.46
2023-05-23T07:24:48.302Z,87.15
2023-05-23T07:27:36.252Z,86.29
2023-05-23T07:30:24.093Z,83.98
2023-05-23T07:33:11.843Z,84.38
2023-05-23T07:35:59.574Z,85.65
2023-05-23T07:38:48.613Z,85.19
2023-05-23T07:41:36.402Z,85.27
2023-05-23T07:44:25.312Z,86.79
2023-05-23T07:47:13.252Z,86.73
2023-05-23T07:50:02.476Z,86.93
2023-05-23T07:52:51.391Z,87.87
2023-05-23T07:55:40.585Z,88.95
2023-05-23T07:58:28.325Z,88.84
2023-05-23T08:01:16.041Z,88.59
2023-05-23T08:04:04.068Z,89.10
2023-05-23T08:07:00.897Z,88.15
2023-05-23T08:09:53.045Z,87.66
2023-05-23T08:12:43.165Z,87.48
2023-05-23T08:15:31.435Z,85.97
2023-05-23T08:18:19.277Z,85.28
2023-05-23T08:21:07.186Z,84.11
2023-05-23T08:23:55.001Z,83.62
2023-05-23T08:26:42.762Z,84.91
2023-05-23T08:29:31.877Z,84.23
2023-05-23T08:32:19.984Z,83.24
2023-05-23T08:35:09.187Z,82.84
2023-05-23T08:37:58.327Z,81.75
2023-05-23T08:40:51.600Z,82.43
2023-05-23T08:43:39.388Z,80.61
2023-05-23T08:46:29.033Z,78.35
2023-05-23T08:49:19.061Z,79.20
2023-05-23T08:52:13.488Z,78.50
2023-05-23T08:55:02.811Z,78.45
2023-05-23T08:57:50.630Z,77.73
2023-05-23T09:00:38.651Z,77.17
2023-05-23T09:03:28.839Z,78.56
2023-05-23T09:06:18.255Z,79.05
2023-05-23T09:09:06.042Z,79.78
2023-05-23T09:11:54.521Z,79.15
2023-05-23T09:14:42.347Z,78.55
2023-05-23T09:17:30.147Z,77.98
2023-05-23T09:20:19.834Z,79.17
2023-05-23T09:23:07.591Z,79.16
2023-05-23T09:25:55.534Z,78.98
2023-05-23T09:28:44.734Z,78.51
2023-05-23T09:31:33.830Z,78.28
2023-05-23T09:34:21.571Z,76.96
2023-05-23T09:37:19.592Z,76.49
2023-05-23T09:40:11.354Z,71.33
2023-05-23T09:43:04.166Z,69.36
2023-05-23T09:45:53.712Z,71.55
2023-05-23T09:48:41.480Z,72.37
2023-05-23T09:51:30.395Z,72.86
2023-05-23T09:54:19.491Z,73.15
2023-05-23T09:57:11.657Z,74.56
2023-05-23T10:00:02.054Z,72.66
2023-05-23T10:03:12.702Z,74.05
2023-05-23T10:06:03.038Z,73.05
2023-05-23T10:08:56.028Z,74.10
2023-05-23T10:12:31.723Z,74.38
2023-05-23T10:15:23.985Z,73.58
2023-05-23T10:18:17.796Z,74.38
2023-05-23T10:21:11.236Z,74.89
2023-05-23T10:24:00.752Z,74.47
2023-05-23T10:26:50.023Z,74.40
2023-05-23T10:29:38.150Z,74.25
2023-05-23T10:32:28.506Z,73.13
2023-05-23T10:35:23.769Z,72.86
2023-05-23T10:38:24.169Z,73.11
2023-05-23T10:41:14.853Z,72.58
2023-05-23T10:44:10.866Z,73.74
2023-05-23T10:47:02.316Z,74.42
2023-05-23T10:49:54.493Z,72.29
2023-05-23T10:52:43.362Z,73.15
2023-05-23T10:55:34.707Z,71.22
2023-05-23T10:58:23.406Z,72.07
2023-05-23T11:01:15.078Z,71.38
2023-05-23T11:04:07.327Z,72.56
2023-05-23T11:06:57.700Z,72.16
2023-05-23T11:10:06.509Z,72.55
2023-05-23T11:13:08.020Z,71.97
2023-05-23T11:15:55.857Z,71.90
2023-05-23T11:18:45.472Z,71.22
2023-05-23T11:21:33.700Z,70.13
2023-05-23T11:24:23.619Z,70.50
2023-05-23T11:27:13.385Z,69.83
2023-05-23T11:30:07.752Z,69.87
2023-05-23T11:32:56.132Z,71.43
2023-05-23T11:35:45.100Z,69.25
2023-05-23T11:38:33.849Z,66.98
2023-05-23T11:41:22.999Z,68.44
2023-05-23T11:44:14.244Z,69.38
2023-05-23T11:47:03.629Z,72.42
2023-05-23T11:49:51.367Z,70.81
2023-05-23T11:52:39.314Z,67.94
2023-05-23T11:55:27.058Z,67.56
2023-05-23T11:58:16.584Z,67.96
2023-05-23T12:01:06.472Z,67.61
2023-05-23T12:03:54.198Z,69.01
2023-05-23T12:06:42.776Z,67.45
2023-05-23T12:09:30.551Z,68.26
2023-05-23T12:12:18.303Z,69.50
2023-05-23T12:15:08.689Z,68.46
2023-05-23T12:17:57.236Z,69.38
2023-05-23T12:20:45.008Z,65.42
2023-05-23T12:23:34.892Z,64.73
2023-05-23T12:26:23.435Z,67.02
2023-05-23T12:29:11.121Z,66.45
2023-05-23T12:32:02.331Z,64.84
2023-05-23T12:34:51.015Z,68.56
2023-05-23T12:37:41.091Z,65.17
2023-05-23T12:40:29.881Z,66.02
2023-05-23T12:43:17.942Z,65.40
2023-05-23T12:46:06.411Z,60.95
2023-05-23T12:48:55.865Z,63.90
2023-05-23T12:51:43.676Z,62.72
2023-05-23T12:54:31.445Z,64.29
2023-05-23T12:57:19.274Z,64.62
2023-05-23T13:00:08.286Z,63.62
2023-05-23T13:02:56.672Z,64.08
2023-05-23T13:05:46.515Z,65.47
2023-05-23T13:08:34.202Z,64.59
2023-05-23T13:11:22.533Z,63.42
2023-05-23T13:14:10.974Z,62.12
2023-05-23T13:16:59.146Z,64.41
2023-05-23T13:19:47.195Z,63.14
2023-05-23T13:22:36.526Z,61.91
2023-05-23T13:25:24.259Z,65.22
2023-05-23T13:28:12.034Z,67.29
2023-05-23T13:31:00.236Z,66.20
2023-05-23T13:33:48.045Z,63.10
2023-05-23T13:36:36.067Z,64.65
2023-05-23T13:39:25.112Z,64.18
2023-05-23T13:42:12.920Z,63.47
2023-05-23T13:45:00.918Z,66.00
2023-05-23T13:47:48.635Z,65.89
2023-05-23T13:50:36.492Z,64.25
2023-05-23T13:53:24.198Z,64.17
2023-05-23T13:56:13.313Z,65.06
2023-05-23T13:59:01.139Z,64.22
2023-05-23T14:01:49.081Z,65.58
2023-05-23T14:04:36.837Z,63.85
2023-05-23T14:07:24.604Z,64.19
2023-05-23T14:10:12.710Z,67.77
2023-05-23T14:13:02.233Z,61.49
2023-05-23T14:15:50.136Z,61.81
2023-05-23T14:18:37.952Z,63.78
2023-05-23T14:21:25.609Z,63.07
2023-05-23T14:24:13.405Z,67.91
2023-05-23T14:27:02.560Z,66.37
2023-05-23T14:29:51.734Z,65.32
2023-05-23T14:32:39.782Z,65.70
2023-05-23T14:35:29.568Z,63.73
2023-05-23T14:38:17.461Z,65.35
2023-05-23T14:41:05.147Z,63.36
2023-05-23T14:43:53.088Z,59.34
2023-05-23T14:46:48.448Z,62.73
2023-05-23T14:49:36.888Z,64.73
2023-05-23T14:52:24.728Z,64.84
2023-05-23T14:55:12.680Z,65.21
2023-05-23T14:58:00.632Z,69.10
2023-05-23T15:00:48.480Z,66.46
2023-05-23T15:03:42.040Z,61.77
2023-05-23T15:06:29.802Z,59.26
2023-05-23T15:09:18.254Z,61.71
2023-05-23T15:12:09.785Z,62.89
2023-05-23T15:15:03.350Z,66.20
2023-05-23T15:17:52.156Z,67.07
2023-05-23T15:20:41.679Z,62.70
2023-05-23T15:23:29.571Z,67.90
2023-05-23T15:26:17.336Z,67.18
2023-05-23T15:29:05.072Z,70.13
2023-05-23T15:31:52.823Z,67.71
2023-05-23T15:34:40.517Z,59.16
2023-05-23T15:37:32.586Z,69.43
2023-05-23T15:40:21.685Z,68.50
2023-05-23T15:43:09.488Z,64.77
2023-05-23T15:45:57.265Z,60.18
2023-05-23T15:48:44.994Z,68.92
2023-05-23T15:51:36.564Z,60.93
2023-05-23T15:54:25.666Z,67.91
2023-05-23T15:57:15.392Z,66.38
2023-05-23T16:00:03.289Z,66.87
2023-05-23T16:02:51.125Z,62.27
2023-05-23T16:05:42.163Z,72.26
2023-05-23T16:08:30.204Z,70.07
2023-05-23T16:11:19.766Z,67.66
2023-05-23T16:14:07.521Z,72.14
2023-05-23T16:16:55.194Z,62.73
2023-05-23T16:19:43.334Z,67.12
2023-05-23T16:22:32.581Z,71.76
2023-05-23T16:25:20.353Z,70.20
2023-05-23T16:28:09.788Z,62.51
2023-05-23T16:30:57.553Z,71.61
2023-05-23T16:33:46.017Z,63.97
2023-05-23T16:36:33.811Z,67.30
2023-05-23T16:39:21.519Z,71.85
2023-05-23T16:42:09.516Z,69.26
2023-05-23T16:44:59.213Z,74.31
2023-05-23T16:47:47.007Z,65.71
2023-05-23T16:50:34.727Z,66.49
2023-05-23T16:53:22.815Z,67.76
2023-05-23T16:56:10.680Z,71.27
2023-05-23T16:58:58.641Z,74.66
2023-05-23T17:01:47.782Z,66.63
2023-05-23T17:04:35.792Z,75.48
2023-05-23T17:07:23.570Z,75.28
2023-05-23T17:10:12.586Z,73.17
2023-05-23T17:13:00.572Z,89.36
2023-05-23T17:15:50.301Z,88.72
2023-05-23T17:18:39.600Z,97.72
2023-05-23T17:21:27.633Z,100.00
2023-05-23T17:24:16.149Z,100.00
2023-05-23T17:27:05.350Z,100.00
2023-05-23T17:29:53.063Z,100.00
2023-05-23T17:32:42.154Z,100.00
2023-05-23T17:35:31.808Z,100.00
2023-05-23T17:38:20.167Z,100.00
2023-05-23T17:41:07.969Z,100.00
2023-05-23T17:43:55.776Z,100.00
2023-05-23T17:46:43.610Z,100.00
2023-05-23T17:49:31.470Z,100.00
2023-05-23T17:52:20.606Z,100.00
2023-05-23T17:55:08.962Z,100.00
2023-05-23T17:57:56.653Z,100.00
2023-05-23T18:00:44.881Z,100.00
2023-05-23T18:03:32.868Z,100.00
2023-05-23T18:06:20.666Z,100.00
2023-05-23T18:09:09.787Z,100.00
2023-05-23T18:11:57.496Z,100.00
2023-05-23T18:14:45.602Z,100.00
2023-05-23T18:17:33.415Z,100.00
2023-05-23T18:20:21.213Z,100.00
2023-05-23T18:23:09.251Z,100.00
2023-05-23T18:25:59.466Z,100.00
2023-05-23T18:28:47.209Z,100.00
2023-05-23T18:31:34.918Z,100.00
2023-05-23T18:34:23.130Z,100.00
2023-05-23T18:37:10.871Z,100.00
2023-05-23T18:40:00.304Z,100.00
2023-05-23T18:42:50.361Z,100.00
2023-05-23T18:45:38.099Z,100.00
2023-05-23T18:48:26.817Z,100.00
2023-05-23T18:51:14.721Z,100.00
2023-05-23T18:54:02.492Z,100.00
2023-05-23T18:56:50.422Z,100.00
2023-05-23T18:59:39.526Z,100.00
2023-05-23T19:02:27.550Z,100.00
2023-05-23T19:05:15.395Z,100.00
2023-05-23T19:08:03.454Z,100.00
2023-05-23T19:10:51.232Z,100.00
2023-05-23T19:13:39.032Z,100.00
2023-05-23T19:16:28.254Z,100.00
2023-05-23T19:19:16.791Z,100.00
2023-05-23T19:22:04.678Z,100.00
2023-05-23T19:24:52.344Z,100.00
2023-05-23T19:27:40.237Z,100.00
2023-05-23T19:30:28.391Z,100.00
2023-05-23T19:33:19.390Z,100.00
2023-05-23T19:36:07.422Z,100.00
2023-05-23T19:38:55.607Z,100.00
2023-05-23T19:41:43.346Z,100.00
2023-05-23T19:44:31.551Z,100.00
2023-05-23T19:47:19.370Z,100.00
2023-05-23T19:50:11.990Z,100.00
2023-05-23T19:53:00.668Z,100.00
2023-05-23T19:55:48.384Z,100.00
2023-05-23T19:58:36.338Z,100.00
2023-05-23T20:01:24.178Z,100.00
2023-05-23T20:04:12.983Z,100.00
2023-05-23T20:07:02.228Z,100.00
2023-05-23T20:09:50.022Z,100.00
2023-05-23T20:12:37.830Z,100.00
2023-05-23T20:15:38.650Z,100.00
2023-05-23T20:18:26.950Z,100.00
2023-05-23T20:21:14.718Z,100.00
2023-05-23T20:24:03.916Z,100.00
2023-05-23T20:26:51.652Z,100.00
2023-05-23T20:29:39.645Z,100.00
2023-05-23T20:32:27.542Z,100.00
2023-05-23T20:35:15.450Z,100.00
2023-05-23T20:38:03.407Z,100.00
2023-05-23T20:40:52.857Z,100.00
2023-05-23T20:43:40.860Z,100.00
2023-05-23T20:46:28.853Z,100.00
2023-05-23T20:49:16.924Z,100.00
2023-05-23T20:52:05.555Z,100.00
2023-05-23T20:54:54.459Z,100.00
2023-05-23T20:57:43.801Z,100.00
2023-05-23T21:00:31.866Z,100.00
2023-05-23T21:03:20.032Z,100.00
2023-05-23T21:06:08.435Z,100.00
2023-05-23T21:08:56.189Z,100.00
2023-05-23T21:11:44.054Z,100.00
2023-05-23T21:14:33.234Z,100.00
2023-05-23T21:17:21.125Z,100.00
2023-05-23T21:20:10.720Z,100.00
2023-05-23T21:22:58.597Z,100.00
2023-05-23T21:25:46.302Z,100.00
2023-05-23T21:28:34.044Z,100.00
2023-05-23T21:31:33.248Z,100.00
2023-05-23T21:34:25.252Z,100.00
2023-05-23T21:37:13.011Z,100.00
2023-05-23T21:40:00.758Z,100.00
2023-05-23T21:42:48.515Z,100.00
2023-05-23T21:45:36.248Z,100.00
2023-05-23T21:48:25.781Z,100.00
2023-05-23T21:51:13.537Z,100.00
2023-05-23T21:54:01.395Z,100.00
2023-05-23T21:56:49.190Z,100.00
2023-05-23T21:59:36.923Z,100.00
2023-05-23T22:02:24.700Z,100.00
2023-05-23T22:05:14.265Z,100.00
2023-05-23T22:08:01.961Z,100.00
2023-05-23T22:10:49.720Z,100.00
2023-05-23T22:13:37.506Z,100.00
2023-05-23T22:16:26.087Z,100.00
2023-05-23T22:19:18.040Z,100.00
2023-05-23T22:22:07.979Z,100.00
2023-05-23T22:24:55.715Z,100.00
2023-05-23T22:27:43.557Z,100.00
2023-05-23T22:30:31.393Z,100.00
2023-05-23T22:33:19.066Z,100.00
2023-05-23T22:36:07.974Z,100.00
2023-05-23T22:38:57.346Z,100.00
2023-05-23T22:41:45.392Z,100.00
2023-05-23T22:44:33.091Z,100.00
2023-05-23T22:47:20.939Z,100.00
2023-05-23T22:50:09.633Z,100.00
2023-05-23T22:52:58.453Z,100.00
2023-05-23T22:55:47.485Z,100.00
2023-05-23T22:58:35.615Z,100.00
2023-05-23T23:01:23.492Z,100.00
2023-05-23T23:04:12.173Z,100.00
2023-05-23T23:07:01.372Z,100.00
2023-05-23T23:09:49.156Z,100.00
2023-05-23T23:12:38.315Z,100.00
2023-05-23T23:15:26.243Z,100.00
2023-05-23T23:18:14.817Z,100.00
2023-05-23T23:21:02.590Z,100.00
2023-05-23T23:23:50.281Z,100.00
2023-05-23T23:26:38.175Z,100.00
2023-05-23T23:29:27.235Z,100.00
2023-05-23T23:32:14.876Z,100.00
2023-05-23T23:35:02.934Z,100.00
2023-05-23T23:37:50.672Z,100.00
2023-05-23T23:40:38.447Z,100.00
2023-05-23T23:43:26.165Z,100.00
2023-05-23T23:46:15.279Z,100.00
2023-05-23T23:49:02.988Z,100.00
2023-05-23T23:51:50.993Z,100.00
2023-05-23T23:54:38.747Z,100.00
2023-05-23T23:57:26.546Z,100.00
